createdAt,value
2017-05-16T00:00:18.010Z,77.80
2017-05-16T00:02:46.321Z,78.30
2017-05-16T00:05:14.668Z,75.80
2017-05-16T00:07:42.979Z,75.70
2017-05-16T00:10:11.286Z,75.90
2017-05-16T00:12:39.616Z,75.10
2017-05-16T00:15:07.922Z,74.50
2017-05-16T00:17:36.974Z,74.90
2017-05-16T00:20:05.289Z,75.60
2017-05-16T00:22:33.583Z,76.60
2017-05-16T00:25:02.630Z,76.70
2017-05-16T00:27:30.954Z,77.10
2017-05-16T00:29:59.266Z,77.50
2017-05-16T00:32:27.578Z,78.00
2017-05-16T00:34:56.669Z,78.20
2017-05-16T00:37:25.722Z,78.80
2017-05-16T00:39:54.031Z,79.00
2017-05-16T00:42:22.382Z,78.70
2017-05-16T00:44:50.694Z,78.70
2017-05-16T00:47:19.001Z,78.60
2017-05-16T00:49:47.330Z,79.20
2017-05-16T00:52:15.642Z,78.10
2017-05-16T00:54:44.689Z,78.70
2017-05-16T00:57:13.026Z,78.40
2017-05-16T00:59:41.335Z,77.70
2017-05-16T01:02:10.366Z,77.50
2017-05-16T01:04:38.683Z,78.20
2017-05-16T01:07:06.966Z,78.90
2017-05-16T01:09:35.256Z,79.90
2017-05-16T01:12:03.593Z,80.50
2017-05-16T01:14:31.884Z,81.00
2017-05-16T01:17:00.910Z,81.20
2017-05-16T01:19:29.261Z,80.60
2017-05-16T01:21:58.318Z,79.70
2017-05-16T01:24:26.634Z,77.70
2017-05-16T01:26:55.718Z,76.80
2017-05-16T01:29:24.771Z,75.90
2017-05-16T01:31:53.064Z,75.60
2017-05-16T01:34:21.395Z,76.30
2017-05-16T01:36:49.688Z,76.80
2017-05-16T01:39:17.999Z,77.40
2017-05-16T01:41:46.348Z,77.70
2017-05-16T01:44:14.659Z,77.90
2017-05-16T01:46:42.975Z,78.20
2017-05-16T01:49:12.050Z,78.00
2017-05-16T01:51:40.351Z,76.90
2017-05-16T01:54:09.461Z,77.80
2017-05-16T01:56:37.806Z,78.30
2017-05-16T01:59:06.114Z,79.80
2017-05-16T02:01:34.425Z,81.00
2017-05-16T02:04:02.765Z,81.30
2017-05-16T02:06:31.073Z,81.40
2017-05-16T02:08:59.369Z,81.70
2017-05-16T02:11:28.441Z,81.90
2017-05-16T02:13:56.746Z,81.70
2017-05-16T02:16:25.793Z,80.90
2017-05-16T02:18:54.147Z,78.00
2017-05-16T02:21:22.635Z,77.00
2017-05-16T02:23:50.943Z,77.10
2017-05-16T02:26:19.294Z,79.30
2017-05-16T02:28:47.587Z,80.90
2017-05-16T02:31:15.870Z,81.80
2017-05-16T02:33:44.217Z,80.70
2017-05-16T02:36:12.530Z,79.20
2017-05-16T02:38:40.842Z,78.20
2017-05-16T02:41:09.901Z,77.20
2017-05-16T02:43:38.187Z,77.40
2017-05-16T02:46:06.474Z,77.50
2017-05-16T02:48:34.815Z,77.80
2017-05-16T02:51:03.128Z,78.60
2017-05-16T02:53:31.427Z,79.00
2017-05-16T02:56:00.818Z,80.20
2017-05-16T02:58:29.141Z,79.70
2017-05-16T03:00:57.453Z,79.80
2017-05-16T03:03:25.798Z,79.90
2017-05-16T03:05:54.098Z,79.60
2017-05-16T03:08:22.389Z,78.00
2017-05-16T03:10:50.720Z,78.00
2017-05-16T03:13:19.015Z,78.80
2017-05-16T03:15:47.307Z,79.40
2017-05-16T03:18:15.634Z,80.30
2017-05-16T03:20:43.929Z,81.20
2017-05-16T03:23:12.227Z,81.70
2017-05-16T03:25:40.562Z,82.20
2017-05-16T03:28:08.851Z,82.30
2017-05-16T03:30:37.140Z,81.80
2017-05-16T03:33:05.476Z,80.60
2017-05-16T03:35:33.771Z,79.60
2017-05-16T03:38:02.059Z,77.60
2017-05-16T03:40:30.390Z,76.70
2017-05-16T03:42:58.682Z,77.30
2017-05-16T03:45:26.979Z,77.10
2017-05-16T03:47:55.319Z,79.40
2017-05-16T03:50:24.355Z,80.90
2017-05-16T03:52:52.651Z,81.10
2017-05-16T03:55:20.976Z,81.30
2017-05-16T03:57:49.269Z,81.20
2017-05-16T04:00:18.299Z,80.70
2017-05-16T04:02:46.627Z,80.30
2017-05-16T04:05:14.919Z,80.30
2017-05-16T04:07:43.965Z,79.80
2017-05-16T04:10:12.290Z,77.90
2017-05-16T04:12:41.314Z,76.20
2017-05-16T04:15:09.603Z,75.10
2017-05-16T04:17:37.936Z,74.70
2017-05-16T04:20:06.231Z,74.50
2017-05-16T04:22:34.528Z,73.70
2017-05-16T04:25:02.860Z,73.00
2017-05-16T04:27:31.156Z,73.50
2017-05-16T04:29:59.451Z,73.20
2017-05-16T04:32:27.796Z,71.30
2017-05-16T04:34:56.843Z,70.10
2017-05-16T04:37:25.148Z,68.20
2017-05-16T04:39:53.511Z,65.00
2017-05-16T04:42:21.820Z,63.10
2017-05-16T04:44:50.866Z,61.50
2017-05-16T04:47:19.225Z,60.00
2017-05-16T04:49:47.532Z,59.20
2017-05-16T04:52:15.834Z,58.40
2017-05-16T04:54:44.180Z,57.70
2017-05-16T04:57:12.493Z,56.90
2017-05-16T04:59:40.791Z,56.50
2017-05-16T05:02:09.132Z,55.80
2017-05-16T05:04:37.439Z,55.00
2017-05-16T05:07:05.740Z,54.00
2017-05-16T05:09:34.128Z,52.80
2017-05-16T05:12:03.159Z,51.90
2017-05-16T05:14:31.457Z,51.10
2017-05-16T05:16:59.783Z,51.00
2017-05-16T05:19:28.819Z,50.60
2017-05-16T05:21:57.120Z,48.70
2017-05-16T05:24:25.455Z,47.20
2017-05-16T05:26:53.746Z,46.90
2017-05-16T05:29:22.040Z,47.00
2017-05-16T05:31:50.369Z,46.70
2017-05-16T05:34:18.664Z,47.10
2017-05-16T05:36:46.968Z,46.90
2017-05-16T05:39:15.305Z,47.30
2017-05-16T05:41:43.602Z,45.10
2017-05-16T05:44:11.897Z,43.50
2017-05-16T05:46:40.236Z,43.20
2017-05-16T05:49:08.535Z,43.10
2017-05-16T05:51:36.832Z,42.40
2017-05-16T05:54:05.183Z,42.10
2017-05-16T05:56:33.481Z,43.10
2017-05-16T05:59:01.773Z,43.30
2017-05-16T06:01:30.115Z,43.00
2017-05-16T06:03:58.417Z,44.50
2017-05-16T06:06:26.709Z,44.50
2017-05-16T06:08:55.056Z,44.30
2017-05-16T06:11:23.815Z,44.30
2017-05-16T06:13:52.851Z,43.90
2017-05-16T06:16:21.199Z,43.30
2017-05-16T06:18:49.498Z,42.40
2017-05-16T06:21:17.840Z,40.10
2017-05-16T06:23:46.193Z,39.80
2017-05-16T06:26:15.227Z,39.60
2017-05-16T06:28:43.527Z,39.70
2017-05-16T06:31:11.868Z,38.60
2017-05-16T06:33:40.174Z,37.40
2017-05-16T06:36:08.484Z,37.80
2017-05-16T06:38:36.829Z,37.90
2017-05-16T06:41:05.131Z,37.70
2017-05-16T06:43:34.207Z,38.60
2017-05-16T06:46:03.296Z,38.10
2017-05-16T06:48:31.616Z,37.50
2017-05-16T06:50:59.939Z,36.20
2017-05-16T06:53:28.273Z,36.50
2017-05-16T06:55:56.571Z,37.80
2017-05-16T06:58:25.619Z,37.50
2017-05-16T07:00:53.963Z,37.30
2017-05-16T07:03:22.263Z,36.40
2017-05-16T07:05:50.596Z,36.60
2017-05-16T07:08:18.940Z,37.10
2017-05-16T07:10:47.239Z,36.80
2017-05-16T07:13:15.563Z,36.20
2017-05-16T07:15:44.634Z,36.00
2017-05-16T07:18:12.940Z,35.60
2017-05-16T07:20:41.984Z,35.90
2017-05-16T07:23:10.319Z,36.00
2017-05-16T07:25:39.368Z,36.30
2017-05-16T07:28:07.673Z,35.50
2017-05-16T07:30:36.004Z,35.30
2017-05-16T07:33:04.317Z,36.70
2017-05-16T07:35:32.627Z,36.80
2017-05-16T07:38:01.711Z,33.40
2017-05-16T07:40:30.024Z,34.90
2017-05-16T07:42:58.343Z,35.40
2017-05-16T07:45:26.688Z,34.80
2017-05-16T07:47:55.015Z,35.00
2017-05-16T07:50:23.336Z,36.00
2017-05-16T07:52:51.685Z,36.90
2017-05-16T07:55:19.991Z,34.70
2017-05-16T07:57:48.304Z,34.70
2017-05-16T08:00:16.645Z,35.80
2017-05-16T08:02:44.943Z,35.30
2017-05-16T08:05:13.255Z,33.10
2017-05-16T08:07:41.589Z,34.80
2017-05-16T08:10:09.895Z,33.50
2017-05-16T08:12:38.199Z,32.30
2017-05-16T08:15:06.518Z,32.80
2017-05-16T08:17:34.823Z,32.00
2017-05-16T08:20:03.131Z,31.40
2017-05-16T08:22:31.473Z,32.20
2017-05-16T08:24:59.767Z,32.70
2017-05-16T08:27:28.074Z,31.40
2017-05-16T08:29:56.451Z,33.00
2017-05-16T08:32:24.765Z,31.20
2017-05-16T08:34:53.072Z,28.80
2017-05-16T08:37:21.408Z,29.10
2017-05-16T08:39:50.455Z,28.20
2017-05-16T08:42:18.747Z,29.50
2017-05-16T08:44:47.088Z,27.50
2017-05-16T08:47:15.388Z,28.30
2017-05-16T08:49:43.707Z,29.90
2017-05-16T08:52:12.778Z,28.60
2017-05-16T08:54:41.087Z,28.60
2017-05-16T08:57:09.389Z,27.50
2017-05-16T08:59:37.727Z,29.80
2017-05-16T09:02:06.783Z,29.60
2017-05-16T09:04:35.087Z,29.00
2017-05-16T09:07:03.449Z,29.20
2017-05-16T09:09:31.762Z,26.70
2017-05-16T09:12:00.807Z,28.90
2017-05-16T09:14:29.160Z,26.50
2017-05-16T09:16:57.462Z,26.70
2017-05-16T09:19:25.774Z,28.40
2017-05-16T09:21:54.115Z,27.80
2017-05-16T09:24:22.854Z,28.10
2017-05-16T09:26:51.892Z,29.20
2017-05-16T09:29:20.224Z,29.60
2017-05-16T09:31:48.537Z,30.90
2017-05-16T09:34:16.835Z,29.60
2017-05-16T09:36:45.159Z,29.20
2017-05-16T09:39:13.459Z,28.90
2017-05-16T09:41:41.774Z,28.70
2017-05-16T09:44:10.118Z,27.10
2017-05-16T09:46:39.171Z,28.60
2017-05-16T09:49:07.484Z,29.50
2017-05-16T09:51:36.549Z,26.20
2017-05-16T09:54:04.855Z,25.50
2017-05-16T09:56:33.903Z,26.50
2017-05-16T09:59:02.219Z,24.90
2017-05-16T10:01:30.524Z,26.20
2017-05-16T10:03:58.844Z,26.60
2017-05-16T10:06:27.140Z,26.50
2017-05-16T10:08:56.210Z,26.00
2017-05-16T10:11:24.506Z,26.20
2017-05-16T10:13:53.547Z,27.70
2017-05-16T10:16:21.867Z,29.00
2017-05-16T10:18:50.168Z,26.70
2017-05-16T10:21:18.503Z,24.80
2017-05-16T10:23:46.809Z,24.40
2017-05-16T10:26:15.871Z,24.10
2017-05-16T10:28:44.192Z,26.70
2017-05-16T10:31:13.300Z,24.20
2017-05-16T10:33:41.610Z,23.40
2017-05-16T10:38:37.393Z,29.00
2017-05-16T10:41:06.444Z,23.40
2017-05-16T10:43:34.769Z,24.60
2017-05-16T10:46:03.820Z,23.80
2017-05-16T10:48:32.169Z,23.50
2017-05-16T10:51:00.468Z,23.00
2017-05-16T10:53:28.762Z,24.90
2017-05-16T10:55:57.095Z,24.30
2017-05-16T10:58:25.398Z,25.10
2017-05-16T11:00:53.730Z,25.80
2017-05-16T11:03:22.771Z,25.30
2017-05-16T11:05:51.103Z,26.10
2017-05-16T11:08:20.144Z,26.30
2017-05-16T11:10:48.440Z,27.40
2017-05-16T11:13:16.780Z,25.60
2017-05-16T11:15:45.815Z,26.00
2017-05-16T11:18:14.169Z,27.00
2017-05-16T11:20:42.468Z,27.20
2017-05-16T11:23:10.763Z,25.10
2017-05-16T11:25:39.827Z,27.20
2017-05-16T11:28:08.131Z,25.50
2017-05-16T11:30:37.219Z,25.70
2017-05-16T11:33:05.519Z,26.70
2017-05-16T11:35:33.824Z,26.60
2017-05-16T11:38:02.147Z,26.80
2017-05-16T11:40:30.457Z,27.50
2017-05-16T11:42:58.775Z,26.80
2017-05-16T11:45:27.079Z,28.40
2017-05-16T11:47:55.385Z,28.20
2017-05-16T11:50:23.714Z,28.30
2017-05-16T11:52:52.015Z,29.10
2017-05-16T11:55:20.337Z,28.00
2017-05-16T11:57:48.637Z,26.90
2017-05-16T12:00:17.683Z,27.60
2017-05-16T12:02:46.006Z,27.40
2017-05-16T12:05:15.042Z,27.40
2017-05-16T12:07:43.384Z,28.20
2017-05-16T12:10:12.435Z,29.00
2017-05-16T12:12:40.735Z,30.50
2017-05-16T12:15:09.070Z,29.00
2017-05-16T12:17:37.376Z,28.60
2017-05-16T12:20:05.726Z,26.80
2017-05-16T12:22:34.033Z,27.00
2017-05-16T12:25:02.347Z,27.30
2017-05-16T12:27:31.415Z,28.30
2017-05-16T12:29:59.710Z,26.40
2017-05-16T12:32:28.794Z,28.90
2017-05-16T12:34:57.095Z,26.30
2017-05-16T12:37:25.398Z,26.90
2017-05-16T12:39:54.458Z,29.30
2017-05-16T12:42:22.772Z,27.00
2017-05-16T12:44:51.816Z,29.30
2017-05-16T12:47:20.151Z,27.90
2017-05-16T12:49:49.200Z,26.40
2017-05-16T12:52:17.532Z,26.90
2017-05-16T12:54:45.835Z,27.20
2017-05-16T12:57:14.144Z,26.00
2017-05-16T12:59:42.463Z,28.20
2017-05-16T13:02:11.501Z,28.00
2017-05-16T13:04:39.835Z,26.60
2017-05-16T13:07:08.867Z,27.80
2017-05-16T13:09:37.159Z,28.00
2017-05-16T13:12:05.483Z,27.10
2017-05-16T13:14:34.523Z,26.50
2017-05-16T13:17:02.858Z,27.00
2017-05-16T13:19:31.891Z,26.50
2017-05-16T13:22:00.184Z,27.40
2017-05-16T13:24:28.507Z,27.40
2017-05-16T13:26:57.571Z,27.10
2017-05-16T13:29:25.921Z,27.60
2017-05-16T13:31:54.228Z,27.50
2017-05-16T13:34:22.535Z,27.10
2017-05-16T13:36:50.871Z,29.40
2017-05-16T13:39:19.180Z,28.70
2017-05-16T13:41:47.489Z,29.10
2017-05-16T13:44:16.571Z,28.20
2017-05-16T13:46:44.872Z,28.70
2017-05-16T13:49:13.184Z,28.20
2017-05-16T13:51:41.551Z,27.30
2017-05-16T13:54:09.855Z,28.60
2017-05-16T13:56:38.164Z,28.80
2017-05-16T13:59:07.223Z,28.70
2017-05-16T14:01:35.551Z,27.60
2017-05-16T14:04:04.620Z,29.40
2017-05-16T14:06:32.935Z,28.10
2017-05-16T14:09:01.259Z,29.20
2017-05-16T14:11:29.584Z,27.40
2017-05-16T14:13:57.883Z,27.50
2017-05-16T14:16:26.196Z,28.80
2017-05-16T14:18:54.492Z,29.10
2017-05-16T14:21:23.575Z,29.00
2017-05-16T14:23:51.892Z,28.90
2017-05-16T14:26:20.191Z,28.80
2017-05-16T14:28:48.527Z,31.10
2017-05-16T14:31:17.571Z,29.20
2017-05-16T14:33:45.868Z,29.50
2017-05-16T14:36:14.182Z,29.00
2017-05-16T14:38:43.226Z,28.50
2017-05-16T14:41:11.564Z,29.80
2017-05-16T14:43:39.867Z,28.00
2017-05-16T14:46:08.174Z,28.20
2017-05-16T14:48:36.508Z,27.90
2017-05-16T14:51:04.807Z,28.00
2017-05-16T14:53:33.903Z,28.90
2017-05-16T14:56:02.209Z,29.20
2017-05-16T14:58:31.259Z,29.70
2017-05-16T15:00:59.594Z,28.80
2017-05-16T15:03:28.643Z,29.70
2017-05-16T15:05:57.019Z,29.10
2017-05-16T15:08:25.330Z,29.80
2017-05-16T15:10:53.639Z,29.30
2017-05-16T15:13:21.963Z,28.90
2017-05-16T15:15:50.264Z,28.80
2017-05-16T15:18:18.614Z,28.90
2017-05-16T15:20:46.918Z,29.20
2017-05-16T15:23:15.245Z,28.70
2017-05-16T15:25:43.572Z,29.00
2017-05-16T15:28:11.886Z,28.20
2017-05-16T15:30:40.223Z,28.70
2017-05-16T15:33:08.531Z,29.80
2017-05-16T15:35:36.831Z,29.60
2017-05-16T15:38:05.155Z,29.40
2017-05-16T15:40:33.453Z,29.90
2017-05-16T15:43:02.555Z,30.40
2017-05-16T15:45:30.845Z,29.60
2017-05-16T15:47:59.138Z,30.10
2017-05-16T15:50:27.451Z,30.50
2017-05-16T15:52:55.744Z,30.80
2017-05-16T15:55:24.064Z,30.60
2017-05-16T15:57:52.360Z,30.60
2017-05-16T16:00:20.654Z,30.00
2017-05-16T16:02:48.967Z,31.00
2017-05-16T16:05:18.344Z,31.10
2017-05-16T16:07:47.230Z,31.60
2017-05-16T16:10:15.527Z,30.90
2017-05-16T16:12:43.868Z,30.90
2017-05-16T16:15:12.163Z,31.70
2017-05-16T16:17:40.478Z,33.70
2017-05-16T16:20:08.798Z,31.70
2017-05-16T16:22:37.111Z,31.70
2017-05-16T16:25:05.449Z,32.70
2017-05-16T16:27:34.513Z,33.00
2017-05-16T16:30:02.819Z,33.50
2017-05-16T16:32:31.880Z,32.30
2017-05-16T16:35:00.176Z,32.80
2017-05-16T16:37:28.509Z,32.80
2017-05-16T16:39:56.803Z,33.90
2017-05-16T16:42:25.101Z,34.50
2017-05-16T16:44:53.425Z,33.00
2017-05-16T16:47:21.727Z,34.40
2017-05-16T16:49:50.070Z,33.70
2017-05-16T16:52:18.374Z,33.70
2017-05-16T16:54:46.678Z,33.90
2017-05-16T16:57:14.999Z,33.70
2017-05-16T16:59:44.074Z,33.80
2017-05-16T17:02:12.416Z,33.80
2017-05-16T17:04:40.731Z,33.50
2017-05-16T17:07:09.031Z,33.90
2017-05-16T17:09:38.100Z,33.60
2017-05-16T17:12:06.403Z,33.60
2017-05-16T17:14:34.739Z,34.20
2017-05-16T17:17:03.776Z,34.20
2017-05-16T17:19:32.078Z,33.80
2017-05-16T17:22:00.396Z,35.00
2017-05-16T17:24:29.435Z,34.90
2017-05-16T17:26:57.761Z,34.60
2017-05-16T17:29:26.808Z,35.80
2017-05-16T17:31:55.098Z,34.80
2017-05-16T17:34:23.420Z,36.20
2017-05-16T17:36:52.459Z,35.30
2017-05-16T17:39:20.792Z,35.80
2017-05-16T17:41:49.106Z,36.60
2017-05-16T17:44:17.399Z,35.70
2017-05-16T17:46:45.730Z,35.80
2017-05-16T17:49:14.039Z,36.50
2017-05-16T17:51:42.359Z,36.60
2017-05-16T17:54:11.394Z,37.40
2017-05-16T17:56:39.704Z,38.50
2017-05-16T17:59:08.023Z,39.30
2017-05-16T18:01:36.319Z,38.70
2017-05-16T18:04:04.716Z,38.90
2017-05-16T18:06:33.021Z,39.70
2017-05-16T18:09:01.323Z,40.50
2017-05-16T18:11:30.385Z,42.30
2017-05-16T18:13:58.684Z,45.10
2017-05-16T18:16:27.764Z,46.90
2017-05-16T18:18:56.067Z,48.40
2017-05-16T18:21:25.114Z,49.10
2017-05-16T18:23:53.443Z,49.20
2017-05-16T18:26:21.743Z,48.30
2017-05-16T18:28:50.080Z,48.40
2017-05-16T18:31:19.135Z,49.00
2017-05-16T18:33:47.441Z,48.90
2017-05-16T18:36:15.759Z,49.00
2017-05-16T18:38:44.056Z,49.00
2017-05-16T18:41:12.376Z,49.90
2017-05-16T18:43:40.672Z,51.20
2017-05-16T18:46:09.756Z,52.40
2017-05-16T18:48:38.055Z,53.40
2017-05-16T18:51:06.360Z,54.30
2017-05-16T18:53:34.692Z,55.20
2017-05-16T18:56:02.993Z,55.30
2017-05-16T18:58:31.327Z,55.40
2017-05-16T19:00:59.637Z,55.30
2017-05-16T19:03:27.936Z,55.00
2017-05-16T19:05:56.265Z,54.80
2017-05-16T19:08:25.309Z,54.90
2017-05-16T19:10:53.635Z,55.00
2017-05-16T19:13:21.931Z,55.80
2017-05-16T19:15:50.977Z,56.10
2017-05-16T19:18:19.293Z,56.50
2017-05-16T19:20:48.340Z,56.60
2017-05-16T19:23:16.679Z,56.20
2017-05-16T19:25:44.975Z,55.80
2017-05-16T19:28:13.266Z,56.60
2017-05-16T19:30:41.579Z,56.50
2017-05-16T19:33:09.871Z,56.40
2017-05-16T19:35:38.952Z,56.80
2017-05-16T19:38:07.263Z,57.50
2017-05-16T19:40:36.299Z,57.90
2017-05-16T19:43:04.608Z,57.90
2017-05-16T19:45:32.914Z,57.70
2017-05-16T19:48:01.242Z,57.80
2017-05-16T19:50:29.548Z,58.00
2017-05-16T19:52:57.858Z,58.00
2017-05-16T19:55:26.919Z,58.00
2017-05-16T19:57:55.211Z,58.00
2017-05-16T20:00:23.547Z,58.10
2017-05-16T20:02:51.848Z,58.40
2017-05-16T20:05:20.147Z,58.40
2017-05-16T20:07:48.469Z,58.40
2017-05-16T20:10:16.763Z,58.40
2017-05-16T20:12:45.097Z,58.60
2017-05-16T20:15:14.131Z,58.40
2017-05-16T20:17:42.453Z,58.50
2017-05-16T20:20:10.767Z,59.10
2017-05-16T20:22:39.059Z,59.10
2017-05-16T20:25:07.375Z,60.00
2017-05-16T20:27:35.666Z,61.10
2017-05-16T20:30:05.100Z,60.30
2017-05-16T20:32:33.453Z,60.20
2017-05-16T20:35:02.487Z,60.30
2017-05-16T20:37:30.909Z,60.40
2017-05-16T20:40:00.510Z,60.30
2017-05-16T20:42:29.567Z,60.30
2017-05-16T20:44:57.903Z,60.00
2017-05-16T20:47:26.212Z,60.40
2017-05-16T20:49:54.506Z,60.70
2017-05-16T20:52:22.817Z,60.50
2017-05-16T20:54:51.111Z,60.60
2017-05-16T20:57:19.440Z,60.60
2017-05-16T20:59:47.732Z,60.50
2017-05-16T21:02:16.829Z,60.30
2017-05-16T21:04:45.862Z,60.10
2017-05-16T21:07:14.158Z,60.10
2017-05-16T21:09:42.476Z,59.90
2017-05-16T21:12:11.516Z,60.20
2017-05-16T21:14:39.836Z,60.60
2017-05-16T21:17:08.127Z,61.40
2017-05-16T21:19:37.220Z,62.90
2017-05-16T21:22:06.255Z,63.20
2017-05-16T21:24:34.565Z,63.50
2017-05-16T21:27:02.879Z,63.60
2017-05-16T21:29:31.915Z,64.00
2017-05-16T21:32:00.240Z,63.80
2017-05-16T21:34:28.544Z,64.00
2017-05-16T21:36:56.865Z,64.30
2017-05-16T21:39:25.164Z,64.10
2017-05-16T21:41:53.462Z,64.30
2017-05-16T21:44:22.521Z,64.00
2017-05-16T21:46:50.826Z,63.80
2017-05-16T21:49:19.150Z,63.50
2017-05-16T21:51:47.451Z,63.80
2017-05-16T21:54:15.787Z,63.70
2017-05-16T21:56:44.071Z,64.10
2017-05-16T21:59:12.369Z,63.40
2017-05-16T22:01:41.429Z,63.40
2017-05-16T22:04:09.723Z,63.60
2017-05-16T22:06:38.041Z,64.30
2017-05-16T22:09:06.341Z,64.60
2017-05-16T22:11:34.680Z,64.30
2017-05-16T22:14:03.707Z,64.30
2017-05-16T22:16:32.003Z,64.50
2017-05-16T22:19:00.311Z,64.70
2017-05-16T22:21:28.603Z,65.00
2017-05-16T22:23:57.662Z,64.80
2017-05-16T22:26:25.969Z,65.10
2017-05-16T22:28:55.042Z,65.00
2017-05-16T22:31:23.340Z,64.90
2017-05-16T22:33:52.376Z,65.20
2017-05-16T22:36:20.691Z,65.50
2017-05-16T22:38:48.985Z,65.20
2017-05-16T22:41:17.295Z,65.00
2017-05-16T22:43:45.591Z,65.20
2017-05-16T22:46:13.914Z,65.20
2017-05-16T22:48:42.206Z,65.60
2017-05-16T22:51:11.244Z,67.00
2017-05-16T22:53:39.563Z,68.30
2017-05-16T22:56:07.863Z,68.60
2017-05-16T22:58:36.184Z,68.60
2017-05-16T23:01:04.475Z,68.40
2017-05-16T23:03:32.807Z,68.30
2017-05-16T23:06:01.099Z,68.00
2017-05-16T23:08:29.398Z,67.70
2017-05-16T23:10:57.723Z,67.30
2017-05-16T23:13:26.760Z,67.30
2017-05-16T23:15:55.075Z,66.90
2017-05-16T23:18:23.381Z,67.10
2017-05-16T23:20:52.450Z,67.20
2017-05-16T23:23:20.748Z,67.50
2017-05-16T23:25:49.791Z,68.40
2017-05-16T23:28:18.108Z,70.00
2017-05-16T23:30:46.404Z,70.20
2017-05-16T23:33:14.728Z,70.10
2017-05-16T23:35:43.028Z,70.20
2017-05-16T23:38:11.376Z,69.60
2017-05-16T23:40:39.680Z,68.60
2017-05-16T23:43:07.975Z,68.70
2017-05-16T23:45:36.291Z,69.60
2017-05-16T23:48:05.328Z,70.10
2017-05-16T23:50:33.646Z,70.20
2017-05-16T23:53:01.941Z,70.10
2017-05-16T23:55:31.011Z,70.00
2017-05-16T23:57:59.312Z,69.60
